createdAt,value
2018-03-25T00:02:18.089Z,68.52
2018-03-25T00:04:45.664Z,68.58
2018-03-25T00:07:13.245Z,68.57
2018-03-25T00:09:40.925Z,68.56
2018-03-25T00:12:08.811Z,68.69
2018-03-25T00:14:36.381Z,68.74
2018-03-25T00:17:04.223Z,68.94
2018-03-25T00:19:31.803Z,68.96
2018-03-25T00:21:59.376Z,69.16
2018-03-25T00:24:27.050Z,69.31
2018-03-25T00:26:54.610Z,69.40
2018-03-25T00:29:22.248Z,69.39
2018-03-25T00:31:49.903Z,69.49
2018-03-25T00:34:18.381Z,69.50
2018-03-25T00:36:45.962Z,69.69
2018-03-25T00:39:13.536Z,69.67
2018-03-25T00:41:41.371Z,69.74
2018-03-25T00:44:08.937Z,69.70
2018-03-25T00:46:36.796Z,69.72
2018-03-25T00:49:04.365Z,69.89
2018-03-25T00:51:31.919Z,69.83
2018-03-25T00:53:59.751Z,69.79
2018-03-25T00:56:27.346Z,70.17
2018-03-25T00:58:54.971Z,70.19
2018-03-25T01:01:22.882Z,70.31
2018-03-25T01:03:50.637Z,70.07
2018-03-25T01:06:18.404Z,70.14
2018-03-25T01:08:46.002Z,70.28
2018-03-25T01:11:13.574Z,70.13
2018-03-25T01:13:41.139Z,70.54
2018-03-25T01:16:11.472Z,70.66
2018-03-25T01:18:39.046Z,70.83
2018-03-25T01:21:06.666Z,70.80
2018-03-25T01:23:34.548Z,71.13
2018-03-25T01:26:02.134Z,71.42
2018-03-25T01:28:29.693Z,71.51
2018-03-25T01:30:57.760Z,71.58
2018-03-25T01:33:26.028Z,71.38
2018-03-25T01:38:28.210Z,71.85
2018-03-25T01:40:55.765Z,71.85
2018-03-25T01:43:23.603Z,71.66
2018-03-25T01:45:51.231Z,71.95
2018-03-25T01:48:18.735Z,71.81
2018-03-25T01:50:46.290Z,71.84
2018-03-25T01:53:14.614Z,71.83
2018-03-25T01:55:42.184Z,72.09
2018-03-25T01:58:09.833Z,71.96
2018-03-25T02:00:40.853Z,72.26
2018-03-25T02:03:08.734Z,72.31
2018-03-25T02:05:37.624Z,72.40
2018-03-25T02:08:05.445Z,72.34
2018-03-25T02:10:33.626Z,72.38
2018-03-25T02:13:02.060Z,72.37
2018-03-25T02:15:29.719Z,72.43
2018-03-25T02:17:57.534Z,72.40
2018-03-25T02:20:25.326Z,72.39
2018-03-25T02:22:52.862Z,72.39
2018-03-25T02:25:20.641Z,72.47
2018-03-25T02:27:49.080Z,72.67
2018-03-25T02:30:18.545Z,72.82
2018-03-25T02:32:46.095Z,72.65
2018-03-25T02:35:13.687Z,72.80
2018-03-25T02:37:41.252Z,72.92
2018-03-25T02:40:09.486Z,72.98
2018-03-25T02:42:37.048Z,73.04
2018-03-25T02:45:04.878Z,72.93
2018-03-25T02:47:32.857Z,73.00
2018-03-25T02:50:00.405Z,72.93
2018-03-25T02:52:28.109Z,73.12
2018-03-25T02:54:55.621Z,73.10
2018-03-25T02:57:23.159Z,73.27
2018-03-25T02:59:52.956Z,73.45
2018-03-25T03:02:21.618Z,73.38
2018-03-25T03:04:49.114Z,73.42
2018-03-25T03:07:18.352Z,73.31
2018-03-25T03:09:45.854Z,73.38
2018-03-25T03:12:13.414Z,73.35
2018-03-25T03:14:40.965Z,73.57
2018-03-25T03:17:08.484Z,73.56
2018-03-25T03:19:36.427Z,73.59
2018-03-25T03:22:03.949Z,73.62
2018-03-25T03:24:32.129Z,73.58
2018-03-25T03:26:59.658Z,73.67
2018-03-25T03:29:27.244Z,73.77
2018-03-25T03:31:54.775Z,73.68
2018-03-25T03:34:25.675Z,73.71
2018-03-25T03:36:53.508Z,73.79
2018-03-25T03:39:21.032Z,73.89
2018-03-25T03:41:48.651Z,73.93
2018-03-25T03:44:16.819Z,73.88
2018-03-25T03:46:44.357Z,73.85
2018-03-25T03:49:11.867Z,73.89
2018-03-25T03:51:39.794Z,73.86
2018-03-25T03:54:08.992Z,73.83
2018-03-25T03:56:36.505Z,73.89
2018-03-25T03:59:05.383Z,73.89
2018-03-25T04:01:32.885Z,73.91
2018-03-25T04:04:00.663Z,73.93
2018-03-25T04:06:28.210Z,73.87
2018-03-25T04:08:55.724Z,74.08
2018-03-25T04:11:23.230Z,74.04
2018-03-25T04:13:51.931Z,73.99
2018-03-25T04:16:19.449Z,73.94
2018-03-25T04:18:46.963Z,73.91
2018-03-25T04:21:14.523Z,73.94
2018-03-25T04:23:42.038Z,73.77
2018-03-25T04:26:09.545Z,73.93
2018-03-25T04:28:37.075Z,74.10
2018-03-25T04:31:04.586Z,74.46
2018-03-25T04:33:32.111Z,74.20
2018-03-25T04:36:00.735Z,74.24
2018-03-25T04:38:28.231Z,74.21
2018-03-25T04:40:55.747Z,74.46
2018-03-25T04:43:24.229Z,74.49
2018-03-25T04:45:51.731Z,74.38
2018-03-25T04:48:19.254Z,74.29
2018-03-25T04:50:46.908Z,74.54
2018-03-25T04:53:14.851Z,74.45
2018-03-25T04:55:44.270Z,74.43
2018-03-25T04:58:11.807Z,74.36
2018-03-25T05:00:39.338Z,74.42
2018-03-25T05:03:06.855Z,74.48
2018-03-25T05:05:34.378Z,74.43
2018-03-25T05:08:01.873Z,74.45
2018-03-25T05:10:29.409Z,74.32
2018-03-25T05:12:57.279Z,74.35
2018-03-25T05:15:24.791Z,74.52
2018-03-25T05:17:52.296Z,74.45
2018-03-25T05:20:20.862Z,74.33
2018-03-25T05:22:48.353Z,74.29
2018-03-25T05:25:15.880Z,74.29
2018-03-25T05:27:43.731Z,74.04
2018-03-25T05:30:11.257Z,73.94
2018-03-25T05:32:38.783Z,73.76
2018-03-25T05:35:07.565Z,73.83
2018-03-25T05:37:35.100Z,73.43
2018-03-25T05:40:02.621Z,73.41
2018-03-25T05:42:30.181Z,73.45
2018-03-25T05:44:58.489Z,73.56
2018-03-25T05:47:26.004Z,73.48
2018-03-25T05:49:54.190Z,73.30
2018-03-25T05:52:21.719Z,72.94
2018-03-25T05:54:49.243Z,72.69
2018-03-25T05:57:16.776Z,72.70
2018-03-25T05:59:44.289Z,72.24
2018-03-25T06:02:11.813Z,72.14
2018-03-25T06:04:39.378Z,71.93
2018-03-25T06:07:06.898Z,71.57
2018-03-25T06:09:34.420Z,71.21
2018-03-25T06:12:01.957Z,70.79
2018-03-25T06:14:29.471Z,70.03
2018-03-25T06:16:57.415Z,69.52
2018-03-25T06:19:24.966Z,68.94
2018-03-25T06:21:52.496Z,68.47
2018-03-25T06:24:20.060Z,68.00
2018-03-25T06:26:47.649Z,67.63
2018-03-25T06:29:15.223Z,67.19
2018-03-25T06:31:42.694Z,66.98
2018-03-25T06:34:10.582Z,67.00
2018-03-25T06:36:39.089Z,66.76
2018-03-25T06:39:06.700Z,66.73
2018-03-25T06:41:34.237Z,66.03
2018-03-25T06:44:01.792Z,65.73
2018-03-25T06:46:29.302Z,65.05
2018-03-25T06:48:56.861Z,63.93
2018-03-25T06:51:24.376Z,64.06
2018-03-25T06:53:51.902Z,63.74
2018-03-25T06:56:19.469Z,63.49
2018-03-25T06:58:46.974Z,62.84
2018-03-25T07:01:14.494Z,62.70
2018-03-25T07:03:42.048Z,61.63
2018-03-25T07:06:10.187Z,60.65
2018-03-25T07:08:37.847Z,60.94
2018-03-25T07:11:06.249Z,59.87
2018-03-25T07:13:36.402Z,59.19
2018-03-25T07:16:04.076Z,58.11
2018-03-25T07:18:31.761Z,57.69
2018-03-25T07:20:59.378Z,55.84
2018-03-25T07:23:26.919Z,55.73
2018-03-25T07:25:54.452Z,54.83
2018-03-25T07:28:22.536Z,53.67
2018-03-25T07:30:51.910Z,52.49
2018-03-25T07:33:19.459Z,51.48
2018-03-25T07:35:46.982Z,51.57
2018-03-25T07:38:15.413Z,51.55
2018-03-25T07:40:45.542Z,50.99
2018-03-25T07:43:13.145Z,50.69
2018-03-25T07:45:40.768Z,49.97
2018-03-25T07:48:08.304Z,51.10
2018-03-25T07:50:35.967Z,50.95
2018-03-25T07:53:03.492Z,50.53
2018-03-25T07:55:31.202Z,50.55
2018-03-25T07:57:59.072Z,50.58
2018-03-25T08:00:26.684Z,49.52
2018-03-25T08:02:54.265Z,50.10
2018-03-25T08:05:21.794Z,50.46
2018-03-25T08:07:49.311Z,50.55
2018-03-25T08:10:16.850Z,51.20
2018-03-25T08:12:46.299Z,50.69
2018-03-25T08:15:13.985Z,48.99
2018-03-25T08:17:41.549Z,49.97
2018-03-25T08:20:09.061Z,52.59
2018-03-25T08:22:36.999Z,51.25
2018-03-25T08:25:05.234Z,51.48
2018-03-25T08:27:35.408Z,49.94
2018-03-25T08:30:09.718Z,48.94
2018-03-25T08:32:39.387Z,48.30
2018-03-25T08:35:08.270Z,47.97
2018-03-25T08:37:36.531Z,50.27
2018-03-25T08:40:04.139Z,50.00
2018-03-25T08:42:31.751Z,48.39
2018-03-25T08:44:59.337Z,47.11
2018-03-25T08:47:26.908Z,45.77
2018-03-25T08:49:56.643Z,45.59
2018-03-25T08:52:24.251Z,45.64
2018-03-25T08:54:51.751Z,44.52
2018-03-25T08:57:19.310Z,43.79
2018-03-25T08:59:48.646Z,42.65
2018-03-25T09:02:16.872Z,41.84
2018-03-25T09:04:44.456Z,41.03
2018-03-25T09:07:12.111Z,40.84
2018-03-25T09:09:39.628Z,41.46
2018-03-25T09:12:07.253Z,41.40
2018-03-25T09:14:37.033Z,41.00
2018-03-25T09:17:04.711Z,40.39
2018-03-25T09:19:32.276Z,39.34
2018-03-25T09:22:00.154Z,38.62
2018-03-25T09:24:27.684Z,38.50
2018-03-25T09:26:55.473Z,37.98
2018-03-25T09:29:23.604Z,37.83
2018-03-25T09:31:51.237Z,37.30
2018-03-25T09:34:23.028Z,38.35
2018-03-25T09:36:50.580Z,37.83
2018-03-25T09:39:18.156Z,37.90
2018-03-25T09:41:46.058Z,37.83
2018-03-25T09:44:13.835Z,37.57
2018-03-25T09:46:46.570Z,37.71
2018-03-25T09:49:14.097Z,38.10
2018-03-25T09:51:43.433Z,37.99
2018-03-25T09:54:11.099Z,37.47
2018-03-25T09:56:38.694Z,37.92
2018-03-25T09:59:06.549Z,38.59
2018-03-25T10:01:35.103Z,41.19
2018-03-25T10:04:02.651Z,40.50
2018-03-25T10:06:30.182Z,41.96
2018-03-25T10:08:57.714Z,41.89
2018-03-25T10:11:25.273Z,42.06
2018-03-25T10:13:52.803Z,41.14
2018-03-25T10:16:20.395Z,40.14
2018-03-25T10:18:47.938Z,39.49
2018-03-25T10:21:15.715Z,39.75
2018-03-25T10:23:43.289Z,40.75
2018-03-25T10:26:10.916Z,40.84
2018-03-25T10:31:15.342Z,39.05
2018-03-25T10:33:42.957Z,37.45
2018-03-25T10:36:10.582Z,36.63
2018-03-25T10:38:38.163Z,36.13
2018-03-25T10:41:05.743Z,34.35
2018-03-25T10:43:33.267Z,32.87
2018-03-25T10:46:00.856Z,32.68
2018-03-25T10:48:28.403Z,32.38
2018-03-25T10:50:56.126Z,34.64
2018-03-25T10:53:23.690Z,33.69
2018-03-25T10:55:51.609Z,32.28
2018-03-25T10:58:19.173Z,30.31
2018-03-25T11:00:46.879Z,28.91
2018-03-25T11:03:14.696Z,27.52
2018-03-25T11:05:42.257Z,30.18
2018-03-25T11:08:09.924Z,29.48
2018-03-25T11:10:37.468Z,31.45
2018-03-25T11:13:05.160Z,31.79
2018-03-25T11:15:32.751Z,30.43
2018-03-25T11:18:00.230Z,29.05
2018-03-25T11:20:27.738Z,29.60
2018-03-25T11:22:55.386Z,30.59
2018-03-25T11:25:22.970Z,30.74
2018-03-25T11:27:50.475Z,30.16
2018-03-25T11:30:18.050Z,29.56
2018-03-25T11:32:45.611Z,30.91
2018-03-25T11:35:13.209Z,29.44
2018-03-25T11:37:41.157Z,30.10
2018-03-25T11:40:08.729Z,30.05
2018-03-25T11:42:36.259Z,28.49
2018-03-25T11:45:03.796Z,27.46
2018-03-25T11:47:31.376Z,24.84
2018-03-25T11:49:58.913Z,24.43
2018-03-25T11:52:27.145Z,22.09
2018-03-25T11:54:55.132Z,19.36
2018-03-25T11:57:22.693Z,18.12
2018-03-25T11:59:50.966Z,18.44
2018-03-25T12:02:18.550Z,20.49
2018-03-25T12:04:46.062Z,20.88
2018-03-25T12:07:13.616Z,23.39
2018-03-25T12:09:41.137Z,25.85
2018-03-25T12:12:08.692Z,24.30
2018-03-25T12:14:36.234Z,22.59
2018-03-25T12:17:03.812Z,20.44
2018-03-25T12:19:31.336Z,18.31
2018-03-25T12:21:59.144Z,17.32
2018-03-25T12:24:26.972Z,15.43
2018-03-25T12:26:54.500Z,15.97
2018-03-25T12:29:22.101Z,17.38
2018-03-25T12:31:49.618Z,16.68
2018-03-25T12:34:17.246Z,16.21
2018-03-25T12:36:44.868Z,15.13
2018-03-25T12:39:12.476Z,16.66
2018-03-25T12:41:40.026Z,17.98
2018-03-25T12:44:07.578Z,17.13
2018-03-25T12:46:35.140Z,16.97
2018-03-25T12:49:02.749Z,17.23
2018-03-25T12:51:30.759Z,17.57
2018-03-25T12:53:58.351Z,17.51
2018-03-25T12:56:26.079Z,17.41
2018-03-25T12:58:53.689Z,19.17
2018-03-25T13:01:21.325Z,21.80
2018-03-25T13:03:48.834Z,22.64
2018-03-25T13:06:16.434Z,21.80
2018-03-25T13:08:44.002Z,21.95
2018-03-25T13:11:11.561Z,21.79
2018-03-25T13:13:39.100Z,22.14
2018-03-25T13:16:06.654Z,24.25
2018-03-25T13:18:34.338Z,25.98
2018-03-25T13:21:01.894Z,26.74
2018-03-25T13:23:29.432Z,28.50
2018-03-25T13:25:57.025Z,29.45
2018-03-25T13:28:24.584Z,29.85
2018-03-25T13:30:52.112Z,30.28
2018-03-25T13:33:19.723Z,29.21
2018-03-25T13:35:47.298Z,28.24
2018-03-25T13:38:14.930Z,27.77
2018-03-25T13:40:43.346Z,27.75
2018-03-25T13:43:10.998Z,28.12
2018-03-25T13:45:38.625Z,28.65
2018-03-25T13:48:06.464Z,29.54
2018-03-25T13:50:34.124Z,30.60
2018-03-25T13:53:01.652Z,31.29
2018-03-25T13:55:29.570Z,30.09
2018-03-25T13:57:57.182Z,28.76
2018-03-25T14:00:24.722Z,27.03
2018-03-25T14:02:52.352Z,25.98
2018-03-25T14:05:20.232Z,24.96
2018-03-25T14:07:47.895Z,25.37
2018-03-25T14:10:15.546Z,26.49
2018-03-25T14:12:43.432Z,27.42
2018-03-25T14:15:11.674Z,27.39
2018-03-25T14:17:39.237Z,25.78
2018-03-25T14:20:06.869Z,24.37
2018-03-25T14:22:34.498Z,23.84
2018-03-25T14:25:03.369Z,23.94
2018-03-25T14:27:31.024Z,23.35
2018-03-25T14:29:58.751Z,23.12
2018-03-25T14:32:26.403Z,23.48
2018-03-25T14:34:53.996Z,22.55
2018-03-25T14:37:21.650Z,23.21
2018-03-25T14:39:49.219Z,23.97
2018-03-25T14:42:16.845Z,24.31
2018-03-25T14:44:44.973Z,24.12
2018-03-25T14:47:12.553Z,24.61
2018-03-25T14:49:40.110Z,24.46
2018-03-25T14:52:07.729Z,24.41
2018-03-25T14:54:35.289Z,24.19
2018-03-25T14:57:02.917Z,26.98
2018-03-25T14:59:31.121Z,27.63
2018-03-25T15:01:58.836Z,27.03
2018-03-25T15:04:26.416Z,28.08
2018-03-25T15:06:54.250Z,28.13
2018-03-25T15:09:21.813Z,27.50
2018-03-25T15:11:49.406Z,27.75
2018-03-25T15:14:17.147Z,28.92
2018-03-25T15:16:44.685Z,29.59
2018-03-25T15:19:12.402Z,30.91
2018-03-25T15:21:40.350Z,32.06
2018-03-25T15:24:08.016Z,31.82
2018-03-25T15:26:35.910Z,32.67
2018-03-25T15:29:03.732Z,33.79
2018-03-25T15:31:31.280Z,34.00
2018-03-25T15:33:58.883Z,33.65
2018-03-25T15:36:26.528Z,32.93
2018-03-25T15:38:54.071Z,33.28
2018-03-25T15:41:21.657Z,33.89
2018-03-25T15:43:49.156Z,35.14
2018-03-25T15:46:16.686Z,35.54
2018-03-25T15:48:44.246Z,36.46
2018-03-25T15:51:11.969Z,36.89
2018-03-25T15:53:39.488Z,36.74
2018-03-25T15:56:07.032Z,36.63
2018-03-25T15:58:34.795Z,36.92
2018-03-25T16:01:02.424Z,37.46
2018-03-25T16:03:29.983Z,37.76
2018-03-25T16:05:57.894Z,37.19
2018-03-25T16:08:28.040Z,37.40
2018-03-25T16:10:55.605Z,37.82
2018-03-25T16:13:23.157Z,38.24
2018-03-25T16:15:50.709Z,38.50
2018-03-25T16:18:18.307Z,38.83
2018-03-25T16:20:45.850Z,38.85
2018-03-25T16:23:13.784Z,38.70
2018-03-25T16:25:42.250Z,38.94
2018-03-25T16:28:09.808Z,39.14
2018-03-25T16:30:37.388Z,39.40
2018-03-25T16:33:05.079Z,39.83
2018-03-25T16:35:32.830Z,40.65
2018-03-25T16:38:00.352Z,41.42
2018-03-25T16:40:28.409Z,41.39
2018-03-25T16:42:56.214Z,41.30
2018-03-25T16:45:24.396Z,41.24
2018-03-25T16:47:52.020Z,41.12
2018-03-25T16:50:19.579Z,41.16
2018-03-25T16:52:47.108Z,41.07
2018-03-25T16:55:14.705Z,41.47
2018-03-25T16:57:42.199Z,41.64
2018-03-25T17:00:09.955Z,41.81
2018-03-25T17:02:37.513Z,41.73
2018-03-25T17:05:05.074Z,41.90
2018-03-25T17:07:32.616Z,41.93
2018-03-25T17:10:00.339Z,42.08
2018-03-25T17:12:27.922Z,42.05
2018-03-25T17:14:55.476Z,42.09
2018-03-25T17:17:23.149Z,41.92
2018-03-25T17:19:51.593Z,41.85
2018-03-25T17:22:19.224Z,42.05
2018-03-25T17:24:46.812Z,42.43
2018-03-25T17:27:14.408Z,42.35
2018-03-25T17:29:42.374Z,42.30
2018-03-25T17:32:09.955Z,42.03
2018-03-25T17:34:38.118Z,42.42
2018-03-25T17:37:05.935Z,42.70
2018-03-25T17:39:33.607Z,42.72
2018-03-25T17:42:01.176Z,42.32
2018-03-25T17:44:28.803Z,42.17
2018-03-25T17:46:56.506Z,42.49
2018-03-25T17:49:24.243Z,42.84
2018-03-25T17:51:51.949Z,42.91
2018-03-25T17:54:20.617Z,42.46
2018-03-25T17:56:48.170Z,42.86
2018-03-25T17:59:15.923Z,42.83
2018-03-25T18:01:44.611Z,43.13
2018-03-25T18:04:12.709Z,43.38
2018-03-25T18:06:40.347Z,43.57
2018-03-25T18:09:07.912Z,43.92
2018-03-25T18:11:35.498Z,44.06
2018-03-25T18:14:03.098Z,44.46
2018-03-25T18:16:30.660Z,44.59
2018-03-25T18:18:58.276Z,44.75
2018-03-25T18:21:25.842Z,44.81
2018-03-25T18:23:53.554Z,45.52
2018-03-25T18:26:21.118Z,45.31
2018-03-25T18:28:49.723Z,45.25
2018-03-25T18:31:17.291Z,45.25
2018-03-25T18:33:45.385Z,45.47
2018-03-25T18:36:12.943Z,45.20
2018-03-25T18:38:40.929Z,45.49
2018-03-25T18:41:11.277Z,45.54
2018-03-25T18:43:41.304Z,45.58
2018-03-25T18:46:09.184Z,45.53
2018-03-25T18:48:36.710Z,45.69
2018-03-25T18:51:04.315Z,45.77
2018-03-25T18:56:07.127Z,45.84
2018-03-25T18:58:45.427Z,46.03
2018-03-25T19:01:15.501Z,46.03
2018-03-25T19:03:44.925Z,46.01
2018-03-25T19:06:17.148Z,45.79
2018-03-25T19:08:46.127Z,46.17
2018-03-25T19:11:20.069Z,46.03
2018-03-25T19:13:47.736Z,46.26
2018-03-25T19:16:15.407Z,46.10
2018-03-25T19:18:43.191Z,45.99
2018-03-25T19:21:10.727Z,45.84
2018-03-25T19:23:43.271Z,46.10
2018-03-25T19:26:10.938Z,46.29
2018-03-25T19:28:38.878Z,46.22
2018-03-25T19:31:06.495Z,46.34
2018-03-25T19:33:34.156Z,46.30
2018-03-25T19:36:05.322Z,46.43
2018-03-25T19:38:34.691Z,46.35
2018-03-25T19:41:02.581Z,46.26
2018-03-25T19:43:30.565Z,46.19
2018-03-25T19:45:58.569Z,46.18
2018-03-25T19:48:26.869Z,46.27
2018-03-25T19:50:54.476Z,46.26
2018-03-25T19:53:23.205Z,46.28
2018-03-25T19:55:50.756Z,46.22
2018-03-25T19:58:18.545Z,46.32
2018-03-25T20:00:46.090Z,46.61
2018-03-25T20:03:16.759Z,46.68
2018-03-25T20:05:44.944Z,46.78
2018-03-25T20:08:13.498Z,46.50
2018-03-25T20:10:41.121Z,46.60
2018-03-25T20:13:09.430Z,46.65
2018-03-25T20:15:36.972Z,46.60
2018-03-25T20:18:06.030Z,46.79
2018-03-25T20:20:33.573Z,46.91
2018-03-25T20:23:01.129Z,47.16
2018-03-25T20:25:28.989Z,47.15
2018-03-25T20:27:56.509Z,47.39
2018-03-25T20:30:24.031Z,47.64
2018-03-25T20:32:51.628Z,47.79
2018-03-25T20:35:19.211Z,47.97
2018-03-25T20:37:46.761Z,47.90
2018-03-25T20:40:14.324Z,47.90
2018-03-25T20:42:41.837Z,48.30
2018-03-25T20:45:09.369Z,48.60
2018-03-25T20:47:36.994Z,48.55
2018-03-25T20:50:04.698Z,48.75
2018-03-25T20:52:32.540Z,48.53
2018-03-25T20:55:00.664Z,48.54
2018-03-25T20:57:28.189Z,48.54
2018-03-25T20:59:55.751Z,48.69
2018-03-25T21:02:23.329Z,48.70
2018-03-25T21:04:50.867Z,48.65
2018-03-25T21:07:18.448Z,48.70
2018-03-25T21:09:46.020Z,48.44
2018-03-25T21:12:13.594Z,48.59
2018-03-25T21:14:41.137Z,48.78
2018-03-25T21:17:08.732Z,48.96
2018-03-25T21:19:36.254Z,48.79
2018-03-25T21:22:03.767Z,48.48
2018-03-25T21:24:31.376Z,48.48
2018-03-25T21:26:58.912Z,48.57
2018-03-25T21:29:26.449Z,48.53
2018-03-25T21:31:53.979Z,48.77
2018-03-25T21:34:21.795Z,48.88
2018-03-25T21:36:49.383Z,48.79
2018-03-25T21:39:16.961Z,48.89
2018-03-25T21:41:44.701Z,49.13
2018-03-25T21:44:12.255Z,49.42
2018-03-25T21:46:39.811Z,49.72
2018-03-25T21:49:07.688Z,49.86
2018-03-25T21:51:35.364Z,49.87
2018-03-25T21:54:02.907Z,49.86
2018-03-25T21:56:30.853Z,49.83
2018-03-25T21:58:58.410Z,50.01
2018-03-25T22:01:26.075Z,50.40
2018-03-25T22:03:53.760Z,50.40
2018-03-25T22:06:21.468Z,50.45
2018-03-25T22:08:49.016Z,50.69
2018-03-25T22:11:16.842Z,50.74
2018-03-25T22:13:44.920Z,50.89
2018-03-25T22:16:12.462Z,50.90
2018-03-25T22:19:00.929Z,51.12
2018-03-25T22:21:28.761Z,51.37
2018-03-25T22:23:56.285Z,51.80
2018-03-25T22:26:23.894Z,51.91
2018-03-25T22:28:51.457Z,51.92
2018-03-25T22:31:19.020Z,52.36
2018-03-25T22:33:46.547Z,52.46
2018-03-25T22:36:14.090Z,52.81
2018-03-25T22:38:42.060Z,52.93
2018-03-25T22:41:10.106Z,52.78
2018-03-25T22:43:38.385Z,52.90
2018-03-25T22:46:06.017Z,53.00
2018-03-25T22:48:33.540Z,52.97
2018-03-25T22:51:01.206Z,53.43
2018-03-25T22:53:28.803Z,53.21
2018-03-25T22:55:56.354Z,53.16
2018-03-25T22:58:23.988Z,53.39
2018-03-25T23:00:51.533Z,53.46
2018-03-25T23:03:19.044Z,53.88
2018-03-25T23:05:46.587Z,53.81
2018-03-25T23:08:14.164Z,53.62
2018-03-25T23:10:41.947Z,53.83
2018-03-25T23:13:10.098Z,53.81
2018-03-25T23:15:37.620Z,53.63
2018-03-25T23:18:05.177Z,53.87
2018-03-25T23:20:32.722Z,53.96
2018-03-25T23:23:01.647Z,53.90
2018-03-25T23:25:29.166Z,54.11
2018-03-25T23:27:56.720Z,54.20
2018-03-25T23:30:24.475Z,54.49
2018-03-25T23:32:51.974Z,54.29
2018-03-25T23:35:19.578Z,54.36
2018-03-25T23:37:47.097Z,54.36
2018-03-25T23:40:14.602Z,54.65
2018-03-25T23:42:42.173Z,54.92
2018-03-25T23:45:09.695Z,54.93
2018-03-25T23:47:37.231Z,54.83
2018-03-25T23:50:04.794Z,54.88
2018-03-25T23:52:32.343Z,55.03
2018-03-25T23:54:59.876Z,55.13
2018-03-25T23:57:27.658Z,55.42
2018-03-25T23:59:55.186Z,55.25
